Time;durP1;ratioP1;P1;durP2;ratioP2;P2;SDS_P1;SDS_P2;PMS_P1;PMS_P2;Temp;Humidity;BMP_temperature;BMP_pressure;BME280_temperature;BME280_humidity;BME280_pressure;Samples;Min_cycle;Max_cycle;Signal;HPM_P1;HPM_P2
2021/07/12 00:00:50;;;;;;;10.27;9.18;;;21.00;90.40;;;;;;6262371;23;20008;-84
2021/07/12 00:03:15;;;;;;;11.35;9.07;;;21.00;90.50;;;;;;6197263;23;20068;-83
2021/07/12 00:05:41;;;;;;;10.18;9.07;;;20.90;90.50;;;;;;6221658;23;20012;-83
2021/07/12 00:08:08;;;;;;;10.55;9.45;;;20.90;90.60;;;;;;6220848;23;20019;-86
2021/07/12 00:10:35;;;;;;;10.48;9.38;;;20.90;90.60;;;;;;6196631;23;20493;-85
2021/07/12 00:13:01;;;;;;;10.25;9.25;;;20.90;90.60;;;;;;6248893;23;20000;-85
2021/07/12 00:15:29;;;;;;;10.65;9.38;;;20.90;90.60;;;;;;6221223;23;19997;-85
2021/07/12 00:17:55;;;;;;;11.23;10.00;;;20.80;90.60;;;;;;6220386;23;20004;-85
2021/07/12 00:20:22;;;;;;;12.82;10.27;;;20.80;90.70;;;;;;6246867;23;19996;-86
2021/07/12 00:22:50;;;;;;;11.00;9.70;;;20.80;90.70;;;;;;6220429;23;20038;-85
2021/07/12 00:25:17;;;;;;;11.73;10.00;;;20.80;90.70;;;;;;6220082;23;20089;-85
2021/07/12 00:27:43;;;;;;;11.02;9.93;;;20.70;90.80;;;;;;6220171;23;20008;-86
2021/07/12 00:30:17;;;;;;;13.20;9.95;;;20.70;90.80;;;;;;6231569;23;20434;-86
2021/07/12 00:32:43;;;;;;;12.25;10.95;;;20.70;90.90;;;;;;6241398;23;20004;-87
2021/07/12 00:35:11;;;;;;;12.93;11.50;;;20.70;90.90;;;;;;6263089;23;20067;-85
2021/07/12 00:37:37;;;;;;;13.57;11.40;;;20.70;90.90;;;;;;6265570;23;20198;-85
2021/07/12 00:40:08;;;;;;;11.80;10.60;;;20.70;91.00;;;;;;6267132;23;20003;-86
2021/07/12 00:42:33;;;;;;;;;;;20.60;91.00;;;;;;6264894;23;20095;-85
2021/07/12 00:45:02;;;;;;;12.85;10.68;;;20.60;91.20;;;;;;6270681;23;19904;-88
2021/07/12 00:47:27;;;;;;;12.10;10.90;;;20.60;91.10;;;;;;6237250;23;20008;-86
2021/07/12 00:49:53;;;;;;;12.93;11.57;;;20.60;91.10;;;;;;6272652;22;20004;-85
2021/07/12 00:52:19;;;;;;;12.30;10.85;;;20.50;91.20;;;;;;6219041;23;20015;-86
2021/07/12 00:54:45;;;;;;;12.02;10.80;;;20.50;91.20;;;;;;6193777;23;20453;-86
2021/07/12 00:57:11;;;;;;;11.90;10.70;;;20.50;91.20;;;;;;6218778;23;20008;-85
2021/07/12 00:59:37;;;;;;;12.43;11.13;;;20.50;91.20;;;;;;6243982;23;20004;-85
2021/07/12 01:02:06;;;;;;;12.63;11.32;;;20.50;91.30;;;;;;6269615;22;19996;-86
2021/07/12 01:04:33;;;;;;;11.95;10.68;;;20.50;91.30;;;;;;6244122;23;20004;-85
2021/07/12 01:06:59;;;;;;;11.98;10.77;;;20.50;91.30;;;;;;6244382;23;20019;-85
2021/07/12 01:09:24;;;;;;;12.20;10.77;;;20.40;91.30;;;;;;6269890;22;20004;-86
2021/07/12 01:12:07;;;;;;;11.90;10.70;;;20.40;91.40;;;;;;6269590;22;20011;-86
2021/07/12 01:15:04;;;;;;;12.00;10.80;;;20.40;91.40;;;;;;6244298;23;20038;-85
2021/07/12 01:17:45;;;;;;;11.93;10.73;;;20.30;91.50;;;;;;6244484;23;20079;-85
2021/07/12 01:20:36;;;;;;;;;;;20.30;91.50;;;;;;6246079;22;20062;-85
2021/07/12 01:23:01;;;;;;;12.43;11.13;;;20.30;91.70;;;;;;6244013;23;19941;-86
2021/07/12 01:26:07;;;;;;;11.68;10.48;;;20.30;91.60;;;;;;6245033;23;20007;-86
2021/07/12 01:28:54;;;;;;;10.82;9.52;;;20.20;91.70;;;;;;6244026;23;20004;-86
2021/07/12 01:32:01;;;;;;;9.95;8.95;;;20.20;91.70;;;;;;6244127;23;20009;-86
2021/07/12 01:34:52;;;;;;;12.00;9.27;;;20.20;91.70;;;;;;6243446;23;20016;-86
2021/07/12 01:37:33;;;;;;;10.02;8.82;;;20.20;91.70;;;;;;6243917;23;20011;-86
2021/07/12 01:40:10;;;;;;;11.35;10.05;;;20.10;91.70;;;;;;6243745;23;20256;-85
2021/07/12 01:43:02;;;;;;;10.98;9.82;;;20.10;91.70;;;;;;6244007;23;20095;-86
2021/07/12 01:45:35;;;;;;;10.60;9.50;;;20.10;91.60;;;;;;6243859;23;20075;-86
2021/07/12 01:48:09;;;;;;;11.82;10.63;;;20.10;91.60;;;;;;6244080;23;20028;-86
2021/07/12 01:51:05;;;;;;;12.00;10.80;;;20.00;91.70;;;;;;6243235;23;20000;-86
2021/07/12 01:54:00;;;;;;;11.38;10.18;;;20.00;91.80;;;;;;6244039;22;20035;-86
2021/07/12 01:56:35;;;;;;;11.38;10.07;;;20.00;91.80;;;;;;6216951;23;20058;-85
2021/07/12 01:59:23;;;;;;;11.30;9.73;;;19.90;91.80;;;;;;6243220;23;20004;-85
2021/07/12 02:01:49;;;;;;;11.88;10.43;;;19.90;91.80;;;;;;6245437;23;20000;-86
2021/07/12 02:04:16;;;;;;;11.65;10.45;;;19.90;91.80;;;;;;6245277;23;20416;-85
2021/07/12 02:06:43;;;;;;;12.02;10.48;;;19.90;91.90;;;;;;6219805;23;20362;-86
2021/07/12 02:09:10;;;;;;;11.70;10.48;;;19.90;91.90;;;;;;6246924;22;20004;-85
2021/07/12 02:11:46;;;;;;;12.85;11.05;;;19.80;91.90;;;;;;6245580;23;20381;-86
2021/07/12 02:14:16;;;;;;;11.73;10.52;;;19.80;91.80;;;;;;6222429;23;20023;-86
2021/07/12 02:16:43;;;;;;;11.13;9.73;;;19.80;91.80;;;;;;6245513;23;20469;-86
2021/07/12 02:19:10;;;;;;;11.93;10.02;;;19.70;91.80;;;;;;6245559;23;20010;-88
2021/07/12 02:21:39;;;;;;;12.07;10.80;;;19.70;91.90;;;;;;6245417;23;20036;-88
2021/07/12 02:24:06;;;;;;;11.77;10.57;;;19.70;91.80;;;;;;6244233;23;20004;-86
2021/07/12 02:26:32;;;;;;;12.23;10.88;;;19.70;91.80;;;;;;6244325;23;20008;-87
2021/07/12 02:29:03;;;;;;;12.02;10.70;;;19.60;91.70;;;;;;6269767;22;20008;-87
2021/07/12 02:31:30;;;;;;;12.40;10.93;;;19.50;91.80;;;;;;6244882;23;20062;-85
2021/07/12 02:33:58;;;;;;;13.27;10.32;;;19.50;91.80;;;;;;6244105;23;20023;-85
2021/07/12 02:36:26;;;;;;;11.88;10.55;;;19.50;91.90;;;;;;6244824;23;20004;-86
2021/07/12 02:38:55;;;;;;;12.82;11.00;;;19.40;91.90;;;;;;6244616;23;20000;-86
2021/07/12 02:41:22;;;;;;;12.20;10.90;;;19.50;92.00;;;;;;6219692;23;20049;-86
2021/07/12 02:43:48;;;;;;;12.30;11.00;;;19.40;92.10;;;;;;6244011;23;19996;-86
2021/07/12 02:46:15;;;;;;;12.65;11.35;;;19.40;92.10;;;;;;6219198;23;20047;-85
2021/07/12 02:48:42;;;;;;;12.95;11.55;;;19.40;92.10;;;;;;6218750;23;20396;-85
2021/07/12 04:53:57;;;;;;;15.35;13.05;;;18.80;93.90;;;;;;6272974;22;20058;-83
2021/07/12 04:56:23;;;;;;;15.52;12.45;;;18.80;94.00;;;;;;6247803;22;20022;-83
2021/07/12 04:58:49;;;;;;;16.42;14.63;;;18.80;94.00;;;;;;6223053;22;20339;-83
2021/07/12 05:01:17;;;;;;;16.15;14.43;;;18.90;94.10;;;;;;6197784;22;20003;-82
2021/07/12 05:03:43;;;;;;;17.38;15.05;;;18.90;94.10;;;;;;6222693;22;20004;-83
2021/07/12 05:06:09;;;;;;;17.98;15.38;;;18.90;94.20;;;;;;6222968;22;20008;-83
2021/07/12 05:08:36;;;;;;;16.15;13.95;;;19.00;94.20;;;;;;6222776;22;20098;-83
2021/07/12 05:11:04;;;;;;;15.90;14.23;;;19.00;94.20;;;;;;6248038;22;19999;-83
2021/07/12 05:13:31;;;;;;;16.92;14.93;;;19.00;94.50;;;;;;6247866;22;20419;-83
2021/07/12 05:15:57;;;;;;;18.55;15.55;;;19.00;94.30;;;;;;6247866;22;20012;-83
2021/07/12 05:18:23;;;;;;;15.60;13.30;;;19.10;94.30;;;;;;6222878;22;20035;-83
2021/07/12 05:20:51;;;;;;;17.58;15.20;;;19.10;94.30;;;;;;6247856;22;20007;-84
2021/07/12 05:23:17;;;;;;;19.30;15.60;;;19.10;94.40;;;;;;6248598;22;20045;-84
2021/07/12 05:25:43;;;;;;;17.63;15.25;;;19.10;94.40;;;;;;6248172;22;20035;-83
2021/07/12 05:28:08;;;;;;;17.48;15.45;;;19.10;94.40;;;;;;6222108;22;20007;-83
2021/07/12 05:30:34;;;;;;;18.33;15.77;;;19.10;94.50;;;;;;6223144;22;20000;-83
2021/07/12 05:33:00;;;;;;;16.85;14.65;;;19.20;94.50;;;;;;6247966;22;20106;-83
2021/07/12 05:35:26;;;;;;;16.67;14.65;;;19.20;94.80;;;;;;6249048;22;20004;-83
2021/07/12 05:37:52;;;;;;;16.23;14.52;;;19.20;94.50;;;;;;6199992;22;20008;-84
2021/07/12 05:40:17;;;;;;;16.50;14.70;;;19.20;94.50;;;;;;6250066;22;20012;-84
2021/07/12 05:42:43;;;;;;;16.00;13.73;;;19.30;94.50;;;;;;6199169;22;20026;-83
2021/07/12 05:45:09;;;;;;;17.15;14.13;;;19.30;94.60;;;;;;6199142;22;20008;-83
2021/07/12 05:48:09;;;;;;;16.42;14.23;;;19.30;94.60;;;;;;6224647;22;20008;-84
2021/07/12 05:50:36;;;;;;;16.38;13.63;;;19.30;94.60;;;;;;6276771;22;20444;-84
2021/07/12 05:53:02;;;;;;;18.02;15.10;;;19.40;94.60;;;;;;6249968;22;20006;-84
2021/07/12 05:55:28;;;;;;;15.65;13.98;;;19.40;94.60;;;;;;6258226;22;20407;-83
2021/07/12 05:57:53;;;;;;;18.83;15.88;;;19.40;94.70;;;;;;6194339;23;20004;-84
2021/07/12 06:00:22;;;;;;;16.50;14.50;;;19.40;94.70;;;;;;6193751;23;20008;-83
2021/07/12 06:02:48;;;;;;;16.35;14.57;;;19.50;94.70;;;;;;6217769;23;20465;-84
2021/07/12 06:05:14;;;;;;;18.88;16.45;;;19.50;95.00;;;;;;6217227;23;20015;-84
2021/07/12 06:07:40;;;;;;;19.38;16.52;;;19.50;94.80;;;;;;6191940;23;20012;-84
2021/07/12 06:10:07;;;;;;;16.02;14.35;;;19.50;94.80;;;;;;6216761;23;20079;-85
2021/07/12 06:12:33;;;;;;;18.05;14.95;;;19.60;94.80;;;;;;6167411;23;20043;-85
2021/07/12 06:14:59;;;;;;;17.55;15.63;;;19.60;94.80;;;;;;6218075;23;20003;-85
2021/07/12 06:17:25;;;;;;;19.90;17.77;;;19.60;94.90;;;;;;6193953;23;20015;-85
2021/07/12 06:19:51;;;;;;;18.67;16.67;;;19.60;94.90;;;;;;6219165;23;20008;-84
2021/07/12 06:22:17;;;;;;;18.35;16.45;;;19.70;94.90;;;;;;6194489;23;20019;-85
2021/07/12 06:24:42;;;;;;;17.23;15.43;;;19.70;94.90;;;;;;6219204;23;20453;-84
2021/07/12 06:27:08;;;;;;;21.08;18.95;;;19.80;94.90;;;;;;6194140;23;20347;-84
2021/07/12 06:29:34;;;;;;;18.77;16.90;;;19.80;94.90;;;;;;6219236;23;20027;-85
2021/07/12 06:32:00;;;;;;;19.73;16.95;;;19.80;94.90;;;;;;6194427;23;20328;-85
2021/07/12 06:34:25;;;;;;;18.17;16.15;;;19.80;94.90;;;;;;6194260;23;20005;-84
2021/07/12 06:36:51;;;;;;;18.75;16.83;;;19.80;94.90;;;;;;6169375;23;20008;-85
2021/07/12 06:39:17;;;;;;;18.83;16.92;;;19.80;94.80;;;;;;6219145;23;20304;-84
2021/07/12 06:41:43;;;;;;;22.27;16.83;;;19.90;94.80;;;;;;6219100;23;20492;-85
2021/07/12 06:44:09;;;;;;;17.05;15.27;;;19.90;94.80;;;;;;6193952;23;20098;-85
2021/07/12 06:46:35;;;;;;;17.55;15.63;;;20.00;94.80;;;;;;6218979;23;20008;-85
2021/07/12 06:49:00;;;;;;;17.77;15.98;;;20.00;94.80;;;;;;6169217;23;20436;-84
2021/07/12 06:51:26;;;;;;;17.48;15.63;;;20.00;94.90;;;;;;6169129;23;20008;-85
2021/07/12 06:53:52;;;;;;;17.00;15.02;;;20.10;94.90;;;;;;6194174;23;20015;-84
2021/07/12 06:56:17;;;;;;;17.80;16.00;;;20.10;94.80;;;;;;6222439;22;20019;-85
2021/07/12 06:58:44;;;;;;;17.27;15.48;;;20.20;94.80;;;;;;6223779;22;20007;-85
2021/07/12 07:01:09;;;;;;;19.00;16.15;;;20.20;94.80;;;;;;6276505;22;20006;-84
2021/07/12 07:03:38;;;;;;;18.25;16.30;;;20.30;94.70;;;;;;6224040;22;20472;-85
2021/07/12 07:06:05;;;;;;;17.70;15.65;;;20.30;94.70;;;;;;6249516;22;20488;-85
2021/07/12 07:08:31;;;;;;;17.75;15.20;;;20.30;94.60;;;;;;6251196;22;20446;-85
2021/07/12 07:10:56;;;;;;;15.75;14.15;;;20.40;94.60;;;;;;6250495;22;20008;-85
2021/07/12 07:13:23;;;;;;;15.43;13.82;;;20.40;94.50;;;;;;6225181;22;20004;-85
2021/07/12 07:15:48;;;;;;;14.20;12.77;;;20.40;94.50;;;;;;6225077;22;20030;-85
2021/07/12 07:18:14;;;;;;;14.77;13.27;;;20.50;94.50;;;;;;6224927;22;20427;-85
2021/07/12 07:20:40;;;;;;;15.20;13.43;;;20.50;94.40;;;;;;6277281;22;20000;-85
2021/07/12 07:23:06;;;;;;;17.25;14.50;;;20.60;94.40;;;;;;6224699;22;20094;-86
2021/07/12 07:25:31;;;;;;;16.58;14.00;;;20.60;94.30;;;;;;6250465;22;20010;-86
2021/07/12 07:27:57;;;;;;;15.05;13.50;;;20.60;94.30;;;;;;6250312;22;20007;-85
2021/07/12 07:30:23;;;;;;;16.55;14.07;;;20.70;94.20;;;;;;6250520;22;20011;-85
2021/07/12 07:32:49;;;;;;;16.30;14.60;;;20.80;94.20;;;;;;6225034;22;20000;-85
2021/07/12 07:35:17;;;;;;;15.45;13.85;;;20.80;94.10;;;;;;6250132;22;19999;-86
2021/07/12 07:37:46;;;;;;;14.15;12.65;;;20.90;94.10;;;;;;6225710;22;20008;-85
2021/07/12 07:40:13;;;;;;;13.13;11.63;;;20.90;94.10;;;;;;6250359;22;20000;-85
2021/07/12 07:42:38;;;;;;;13.68;12.25;;;21.00;94.10;;;;;;6224970;22;20070;-85
2021/07/12 07:45:07;;;;;;;14.35;11.93;;;21.10;94.10;;;;;;6225220;22;20018;-85
2021/07/12 07:47:33;;;;;;;12.60;11.25;;;21.20;94.00;;;;;;6250151;22;20003;-86
2021/07/12 07:49:59;;;;;;;14.45;12.90;;;21.20;93.90;;;;;;6277622;22;20002;-86
2021/07/12 07:52:25;;;;;;;14.20;12.70;;;21.30;93.90;;;;;;6250776;22;19996;-86
2021/07/12 07:54:51;;;;;;;12.85;11.55;;;21.40;93.70;;;;;;6245164;23;20019;-86
2021/07/12 07:57:17;;;;;;;12.18;10.57;;;21.50;93.60;;;;;;6219456;23;20348;-87
2021/07/12 07:59:43;;;;;;;12.73;11.27;;;21.50;93.40;;;;;;6244838;23;20004;-87
2021/07/12 08:02:09;;;;;;;13.07;11.25;;;21.50;93.20;;;;;;6247485;23;20009;-87
2021/07/12 08:04:35;;;;;;;11.25;10.05;;;21.70;93.00;;;;;;6245082;23;20375;-87
2021/07/12 08:07:00;;;;;;;13.38;11.02;;;21.70;92.90;;;;;;6245805;23;20008;-87
2021/07/12 08:09:26;;;;;;;11.63;9.68;;;21.80;92.80;;;;;;6245561;23;20012;-87
2021/07/12 08:11:52;;;;;;;9.38;7.97;;;21.90;92.70;;;;;;6220242;23;20008;-87
2021/07/12 08:14:18;;;;;;;9.25;7.75;;;21.90;92.70;;;;;;6220423;23;20004;-87
2021/07/12 08:16:44;;;;;;;9.90;8.38;;;22.00;92.70;;;;;;6220368;23;20012;-87
2021/07/12 08:19:10;;;;;;;9.73;7.50;;;22.10;92.60;;;;;;6245776;23;20092;-87
2021/07/12 08:21:36;;;;;;;7.70;6.75;;;22.20;92.50;;;;;;6220398;23;20012;-87
2021/07/12 08:24:02;;;;;;;10.13;7.20;;;22.20;92.20;;;;;;6246006;23;20015;-87
2021/07/12 08:26:30;;;;;;;9.43;7.25;;;22.30;92.00;;;;;;6221590;23;20099;-87
2021/07/12 08:28:58;;;;;;;7.82;6.25;;;22.30;91.80;;;;;;6222241;23;20005;-88
2021/07/12 08:31:24;;;;;;;7.47;5.68;;;22.40;91.60;;;;;;6258647;22;20000;-85
2021/07/12 08:33:50;;;;;;;7.60;5.82;;;22.50;91.50;;;;;;6262352;23;20011;-86
2021/07/12 08:36:18;;;;;;;9.50;6.13;;;22.50;91.50;;;;;;6250007;23;20008;-87
2021/07/12 08:38:47;;;;;;;10.60;7.78;;;22.60;91.40;;;;;;6245350;23;20431;-87
2021/07/12 08:41:15;;;;;;;11.32;6.60;;;22.70;91.20;;;;;;6245775;23;20086;-87
2021/07/12 08:43:45;;;;;;;8.52;6.07;;;22.80;90.90;;;;;;6245017;23;20345;-87
2021/07/12 08:46:13;;;;;;;11.90;8.25;;;22.80;90.80;;;;;;6244793;23;20004;-87
2021/07/12 08:48:42;;;;;;;8.65;6.45;;;22.90;90.10;;;;;;6244525;23;20005;-88
2021/07/12 08:51:11;;;;;;;8.98;6.68;;;23.00;90.00;;;;;;6246486;22;19996;-86
2021/07/12 08:53:37;;;;;;;8.60;6.25;;;23.00;89.60;;;;;;6244837;23;20391;-88
2021/07/12 08:56:04;;;;;;;8.73;6.82;;;23.10;89.20;;;;;;6241475;23;20012;-87
2021/07/12 08:58:33;;;;;;;9.52;5.93;;;23.10;88.70;;;;;;6244323;23;20023;-87
2021/07/12 09:01:03;;;;;;;8.38;5.43;;;23.20;88.70;;;;;;6220836;23;20099;-88
2021/07/12 09:03:35;;;;;;;10.80;6.10;;;23.30;88.50;;;;;;6244926;23;20004;-87
2021/07/12 09:06:15;;;;;;;7.32;5.68;;;23.40;88.40;;;;;;6244952;23;20087;-87
2021/07/12 09:08:53;;;;;;;7.88;6.13;;;23.40;87.60;;;;;;6244656;23;20075;-87
2021/07/12 09:11:21;;;;;;;7.18;5.40;;;23.50;86.70;;;;;;6244882;23;20301;-89
2021/07/12 09:13:54;;;;;;;7.20;5.78;;;23.50;86.50;;;;;;6245136;23;20074;-88
2021/07/12 09:16:49;;;;;;;6.30;5.07;;;23.60;85.70;;;;;;6244705;23;20011;-88
2021/07/12 09:19:24;;;;;;;5.75;4.90;;;23.70;86.00;;;;;;6245301;23;20328;-88
2021/07/12 09:22:03;;;;;;;5.80;4.85;;;23.70;86.20;;;;;;6245020;23;20004;-87
2021/07/12 09:24:55;;;;;;;6.93;5.15;;;23.80;85.90;;;;;;6244550;23;20083;-88
2021/07/12 09:27:24;;;;;;;5.85;5.07;;;23.90;84.40;;;;;;6245567;23;20486;-88
2021/07/12 09:30:11;;;;;;;7.75;5.82;;;23.90;84.30;;;;;;6245228;23;20003;-88
2021/07/12 09:32:42;;;;;;;7.18;5.65;;;24.00;83.80;;;;;;6245020;23;20007;-88
2021/07/12 09:35:14;;;;;;;5.90;4.78;;;24.00;83.10;;;;;;6220394;23;20057;-88
2021/07/12 09:37:42;;;;;;;6.05;4.90;;;24.10;83.20;;;;;;6244982;23;20012;-88
2021/07/12 09:40:13;;;;;;;5.20;4.38;;;24.10;83.10;;;;;;6244453;23;20070;-83
2021/07/12 09:42:41;;;;;;;5.75;4.53;;;24.20;83.10;;;;;;6244202;23;20032;-83
2021/07/12 09:45:09;;;;;;;5.85;4.50;;;24.30;83.20;;;;;;6244257;23;20009;-83
2021/07/12 09:47:37;;;;;;;5.65;4.28;;;24.30;83.00;;;;;;6243829;23;20483;-82
2021/07/12 09:50:06;;;;;;;5.25;4.28;;;24.40;82.80;;;;;;6244103;23;20328;-82
2021/07/12 09:52:48;;;;;;;5.43;4.10;;;24.50;82.20;;;;;;6245995;22;20000;-82
2021/07/12 09:55:24;;;;;;;5.10;3.90;;;24.50;81.80;;;;;;6236542;23;20032;-82
2021/07/12 09:58:14;;;;;;;5.57;4.50;;;24.60;80.80;;;;;;6218836;23;20014;-82
2021/07/12 10:01:00;;;;;;;4.82;4.05;;;24.60;79.80;;;;;;6245553;23;20004;-82
2021/07/12 10:03:26;;;;;;;5.10;3.97;;;24.60;79.80;;;;;;6245499;23;20012;-82
2021/07/12 10:06:11;;;;;;;5.97;4.45;;;24.70;79.70;;;;;;6218830;23;20378;-82
2021/07/12 10:08:37;;;;;;;6.65;5.32;;;24.80;78.30;;;;;;6218732;23;20367;-82
2021/07/12 10:11:03;;;;;;;6.13;5.10;;;24.80;76.10;;;;;;6193755;23;20000;-82
2021/07/12 10:13:28;;;;;;;8.05;4.80;;;24.90;76.90;;;;;;6218829;23;20388;-82
2021/07/12 10:15:54;;;;;;;7.03;5.28;;;24.90;77.20;;;;;;6245554;23;20031;-82
2021/07/12 10:18:20;;;;;;;5.63;4.88;;;25.00;77.10;;;;;;6245656;23;20040;-82
2021/07/12 10:20:46;;;;;;;5.82;3.92;;;25.00;76.60;;;;;;6246221;23;20012;-82
2021/07/12 10:23:14;;;;;;;8.60;5.00;;;25.10;76.90;;;;;;6219436;23;20030;-84
2021/07/12 10:25:45;;;;;;;5.50;4.15;;;25.20;76.90;;;;;;6218118;23;20034;-82
2021/07/12 10:28:12;;;;;;;5.13;3.65;;;25.20;76.70;;;;;;6220765;23;20055;-81
2021/07/12 10:30:41;;;;;;;5.25;4.07;;;25.30;77.10;;;;;;6227685;23;20004;-83
2021/07/12 10:33:13;;;;;;;5.07;4.22;;;25.40;77.30;;;;;;6219556;23;20023;-83
2021/07/12 10:35:51;;;;;;;6.30;5.03;;;25.40;78.00;;;;;;6219062;23;20001;-83
2021/07/12 10:38:24;;;;;;;6.65;5.13;;;25.50;75.80;;;;;;6194457;23;20012;-83
2021/07/12 10:40:54;;;;;;;5.00;4.40;;;25.50;75.50;;;;;;6218845;23;20293;-83
2021/07/12 10:43:42;;;;;;;6.82;4.63;;;25.60;75.90;;;;;;6217074;22;19995;-86
2021/07/12 10:46:09;;;;;;;6.93;4.45;;;25.60;75.70;;;;;;6219305;23;20114;-85
2021/07/12 10:48:37;;;;;;;4.35;3.75;;;25.60;75.90;;;;;;6194392;23;20008;-86
2021/07/12 10:51:41;;;;;;;5.75;4.30;;;25.60;75.90;;;;;;6218957;23;20007;-86
2021/07/12 10:54:12;;;;;;;4.28;3.30;;;25.70;75.00;;;;;;6094390;23;20002;-86
2021/07/12 10:56:44;;;;;;;6.53;4.70;;;25.80;74.70;;;;;;6196198;23;20055;-86
2021/07/12 10:59:30;;;;;;;7.82;4.43;;;25.80;73.20;;;;;;6219148;23;20058;-86
2021/07/12 11:01:58;;;;;;;5.63;4.20;;;25.90;73.80;;;;;;6219573;23;20004;-85
2021/07/12 11:04:52;;;;;;;6.10;5.03;;;26.00;74.20;;;;;;6219332;23;20400;-87
2021/07/12 11:07:38;;;;;;;5.82;4.03;;;26.10;73.70;;;;;;6221518;23;20335;-87
2021/07/12 11:10:05;;;;;;;5.32;3.72;;;26.10;72.60;;;;;;6248004;23;20031;-87
2021/07/12 11:12:30;;;;;;;4.25;3.42;;;26.20;71.50;;;;;;6194953;23;20336;-87
2021/07/12 11:15:05;;;;;;;4.88;3.47;;;26.20;71.70;;;;;;6218470;23;20004;-87
2021/07/12 11:17:53;;;;;;;5.55;4.20;;;26.30;72.50;;;;;;6220676;23;20105;-87
2021/07/12 11:20:51;;;;;;;4.82;3.55;;;26.40;72.60;;;;;;6258422;23;19984;-89
2021/07/12 11:23:39;;;;;;;5.60;4.25;;;26.50;72.80;;;;;;6239831;22;20012;-87
2021/07/12 11:26:20;;;;;;;5.15;4.10;;;26.60;71.70;;;;;;6223443;23;20327;-88
2021/07/12 11:28:51;;;;;;;4.68;3.83;;;26.60;71.10;;;;;;6220291;23;20412;-86
2021/07/12 11:31:38;;;;;;;5.28;4.18;;;26.70;71.20;;;;;;6219619;23;19997;-86
2021/07/12 11:34:27;;;;;;;5.13;4.13;;;26.70;69.60;;;;;;6219169;23;20007;-86
2021/07/12 11:37:04;;;;;;;4.63;3.75;;;26.70;70.10;;;;;;6219704;23;20438;-86
2021/07/12 11:39:35;;;;;;;7.13;4.95;;;26.70;70.00;;;;;;6218572;23;20344;-86
2021/07/12 11:42:22;;;;;;;6.32;4.82;;;26.70;69.70;;;;;;6218135;23;20428;-86
2021/07/12 11:45:14;;;;;;;5.25;3.95;;;26.70;69.40;;;;;;6245894;22;20363;-86
2021/07/12 11:47:49;;;;;;;7.47;5.00;;;26.60;70.00;;;;;;6217740;23;20008;-86
2021/07/12 11:50:20;;;;;;;9.90;4.50;;;26.60;70.10;;;;;;6247278;23;20000;-88
2021/07/12 11:52:56;;;;;;;7.43;4.60;;;26.60;69.80;;;;;;6247540;23;20376;-88
2021/07/12 11:55:33;;;;;;;5.90;4.80;;;26.60;69.50;;;;;;6214209;23;20008;-88
2021/07/12 11:58:01;;;;;;;5.25;4.32;;;26.60;68.10;;;;;;6195306;23;20016;-87
2021/07/12 12:00:36;;;;;;;7.18;4.65;;;26.60;69.20;;;;;;6195942;23;20031;-87
2021/07/12 12:03:03;;;;;;;5.13;4.40;;;26.60;69.00;;;;;;6219851;23;20016;-87
2021/07/12 12:05:48;;;;;;;5.72;4.57;;;26.60;69.40;;;;;;6219872;23;20376;-88
2021/07/12 12:08:18;;;;;;;5.72;5.13;;;26.70;69.80;;;;;;6195168;23;20004;-88
2021/07/12 12:10:45;;;;;;;6.05;4.40;;;26.70;69.90;;;;;;6221112;23;20424;-87
2021/07/12 12:13:14;;;;;;;5.15;3.90;;;26.80;70.20;;;;;;6196505;23;20008;-86
2021/07/12 12:15:43;;;;;;;4.50;4.10;;;26.80;70.00;;;;;;6219831;23;20015;-87
2021/07/12 12:18:13;;;;;;;4.35;3.85;;;26.80;69.90;;;;;;6246602;23;20000;-87
2021/07/12 12:20:59;;;;;;;7.97;4.10;;;26.80;70.20;;;;;;6219261;23;20066;-87
2021/07/12 12:23:29;;;;;;;4.97;3.92;;;26.80;69.00;;;;;;6218393;23;20392;-86
2021/07/12 12:26:06;;;;;;;5.03;4.00;;;26.80;69.70;;;;;;6194165;23;20036;-86
2021/07/12 12:28:54;;;;;;;6.85;4.43;;;26.80;70.50;;;;;;6219311;23;20082;-86
2021/07/12 12:31:23;;;;;;;4.97;4.40;;;26.90;70.80;;;;;;6245775;23;20008;-87
2021/07/12 12:33:58;;;;;;;5.30;4.75;;;26.90;70.70;;;;;;6219226;23;19996;-86
2021/07/12 12:36:28;;;;;;;5.55;4.50;;;26.90;71.00;;;;;;6219593;23;20083;-86
2021/07/12 12:38:57;;;;;;;4.60;4.10;;;26.90;71.20;;;;;;6246509;23;20072;-86
2021/07/12 12:41:26;;;;;;;8.63;4.22;;;26.90;70.70;;;;;;6219852;23;20020;-87
2021/07/12 12:44:21;;;;;;;4.72;3.65;;;26.90;70.50;;;;;;6245706;22;20014;-86
2021/07/12 12:46:59;;;;;;;4.75;3.85;;;26.90;70.00;;;;;;6242624;23;20012;-86
2021/07/12 12:49:32;;;;;;;6.78;4.00;;;26.90;70.10;;;;;;6219894;23;20077;-87
2021/07/12 12:52:12;;;;;;;5.90;4.00;;;27.00;70.00;;;;;;6219812;23;20059;-88
2021/07/12 12:54:44;;;;;;;5.07;3.97;;;26.90;68.90;;;;;;6246252;23;20001;-88
2021/07/12 12:57:10;;;;;;;4.57;4.05;;;26.90;69.90;;;;;;6219502;23;20007;-88
2021/07/12 13:00:10;;;;;;;5.05;4.55;;;26.90;69.20;;;;;;6191073;23;20058;-88
2021/07/12 13:02:41;;;;;;;5.70;4.30;;;26.90;69.70;;;;;;6219140;23;20004;-87
2021/07/12 13:05:14;;;;;;;4.60;4.13;;;26.90;69.20;;;;;;6194689;23;20085;-86
2021/07/12 13:07:54;;;;;;;5.28;4.10;;;26.90;68.90;;;;;;6246345;23;20034;-87
2021/07/12 13:10:25;;;;;;;5.68;3.88;;;26.90;67.20;;;;;;6219138;23;20000;-86
2021/07/12 13:12:55;;;;;;;5.07;3.90;;;26.80;67.60;;;;;;6244110;23;20072;-86
2021/07/12 13:15:26;;;;;;;4.47;3.88;;;26.80;67.90;;;;;;6246383;23;20008;-87
2021/07/12 13:17:52;;;;;;;;;;;26.80;68.50;;;;;;6220730;23;20083;-84
2021/07/12 13:20:28;;;;;;;4.25;3.78;;;26.80;69.80;;;;;;6215813;23;20303;-87
2021/07/12 13:22:53;;;;;;;4.65;3.92;;;26.80;69.60;;;;;;6221011;23;20004;-86
2021/07/12 13:25:29;;;;;;;4.75;4.03;;;26.80;69.90;;;;;;6219129;23;20019;-86
2021/07/12 13:28:05;;;;;;;5.05;3.45;;;26.80;69.20;;;;;;6219019;23;20046;-86
2021/07/12 13:30:37;;;;;;;5.40;3.58;;;26.80;69.30;;;;;;6219073;23;20012;-86
2021/07/12 13:33:03;;;;;;;5.18;3.85;;;26.80;69.30;;;;;;6219343;23;20014;-86
2021/07/12 13:35:30;;;;;;;4.45;3.60;;;26.80;69.50;;;;;;6194533;23;20004;-86
2021/07/12 13:37:58;;;;;;;4.70;4.00;;;26.90;69.00;;;;;;6194144;23;20091;-86
2021/07/12 13:40:25;;;;;;;4.05;3.35;;;26.80;68.70;;;;;;6219459;23;20008;-87
2021/07/12 13:42:52;;;;;;;4.00;3.38;;;26.90;69.20;;;;;;6246130;23;20005;-88
2021/07/12 13:45:21;;;;;;;4.50;3.20;;;26.80;68.90;;;;;;6221239;22;20339;-88
2021/07/12 13:47:47;;;;;;;5.00;3.58;;;26.80;69.10;;;;;;6250085;22;20134;-88
2021/07/12 13:50:29;;;;;;;5.35;3.85;;;26.90;69.40;;;;;;6250348;22;19996;-89
2021/07/12 13:53:02;;;;;;;5.05;3.90;;;26.90;67.50;;;;;;6250353;22;20382;-88
2021/07/12 13:55:37;;;;;;;4.85;4.35;;;26.90;68.30;;;;;;6249992;22;20000;-88
2021/07/12 13:58:13;;;;;;;4.20;3.60;;;26.80;67.80;;;;;;6251798;22;20019;-87
2021/07/12 14:00:49;;;;;;;5.88;3.65;;;26.80;68.00;;;;;;6202790;22;20435;-89
2021/07/12 14:03:15;;;;;;;4.82;3.55;;;26.90;68.40;;;;;;6278719;22;20003;-88
2021/07/12 14:05:41;;;;;;;4.15;3.60;;;26.80;69.00;;;;;;6248274;22;20090;-89
2021/07/12 14:08:07;;;;;;;4.20;3.80;;;26.90;69.10;;;;;;6226576;22;20061;-89
2021/07/12 14:10:33;;;;;;;4.75;3.55;;;26.90;69.10;;;;;;6226568;22;20032;-89
2021/07/12 14:13:06;;;;;;;4.38;3.97;;;26.90;68.90;;;;;;6252089;22;20002;-84
2021/07/12 14:15:34;;;;;;;5.70;3.75;;;26.90;69.10;;;;;;6277928;22;19996;-84
2021/07/12 14:17:59;;;;;;;5.82;3.92;;;27.00;69.60;;;;;;6201846;22;20070;-84
2021/07/12 14:20:28;;;;;;;4.60;3.88;;;27.00;69.80;;;;;;6251406;22;20008;-85
2021/07/12 14:22:54;;;;;;;4.47;3.85;;;26.90;69.90;;;;;;6226011;22;20385;-84
2021/07/12 14:25:22;;;;;;;5.00;3.65;;;27.00;70.70;;;;;;6250537;22;20004;-84
2021/07/12 14:27:54;;;;;;;4.93;4.00;;;27.00;71.10;;;;;;6226808;22;20086;-84
2021/07/12 14:30:28;;;;;;;5.88;4.45;;;27.00;71.50;;;;;;6251152;22;20000;-84
2021/07/12 14:33:08;;;;;;;6.78;4.70;;;27.00;71.70;;;;;;6252322;22;20000;-84
2021/07/12 14:35:37;;;;;;;6.28;5.22;;;27.10;72.20;;;;;;6203854;22;20004;-84
2021/07/12 14:38:03;;;;;;;6.43;4.70;;;27.10;72.50;;;;;;6226566;22;20011;-85
2021/07/12 14:40:28;;;;;;;5.90;5.22;;;27.10;72.60;;;;;;6225623;22;20008;-86
2021/07/12 14:42:55;;;;;;;6.57;5.22;;;27.10;73.10;;;;;;6200856;22;20053;-84
2021/07/12 14:45:22;;;;;;;6.30;4.95;;;27.10;72.40;;;;;;6198618;23;20024;-85
2021/07/12 14:47:48;;;;;;;6.13;5.00;;;27.10;72.50;;;;;;6195496;23;20043;-84
2021/07/12 14:50:14;;;;;;;6.55;5.63;;;27.20;72.80;;;;;;6247208;23;20435;-85
2021/07/12 14:52:40;;;;;;;7.60;5.72;;;27.20;72.60;;;;;;6195005;23;20012;-84
2021/07/12 14:55:06;;;;;;;6.05;4.95;;;27.20;73.10;;;;;;6170287;23;20012;-84
2021/07/12 14:57:31;;;;;;;6.18;5.40;;;27.10;72.80;;;;;;6220602;23;20004;-85
2021/07/12 14:59:57;;;;;;;6.50;5.43;;;27.20;73.10;;;;;;6247182;23;20008;-84